Time;durP1;ratioP1;P1;durP2;ratioP2;P2;SDS_P1;SDS_P2;PMS_P1;PMS_P2;Temp;Humidity;BMP_temperature;BMP_pressure;BME280_temperature;BME280_humidity;BME280_pressure;Samples;Min_cycle;Max_cycle;Signal;HPM_P1;HPM_P2
2022/06/11 00:00:39;;;;;;;0.20;0.20;;;14.30;99.90;;;;;;5053542;28;20045;-76
2022/06/11 00:03:05;;;;;;;0.88;0.32;;;14.20;99.90;;;;;;5035507;28;20027;-77
2022/06/11 00:05:30;;;;;;;0.10;0.10;;;14.00;99.90;;;;;;5053338;28;20468;-76
2022/06/11 00:07:57;;;;;;;2.25;1.00;;;13.80;99.90;;;;;;5035374;28;20066;-76
2022/06/11 00:10:23;;;;;;;2.25;2.05;;;13.80;99.90;;;;;;5053647;28;20017;-76
2022/06/11 00:12:49;;;;;;;0.10;0.10;;;13.80;99.90;;;;;;5053524;28;20131;-76
2022/06/11 00:15:15;;;;;;;0.20;0.20;;;13.70;99.90;;;;;;5053650;28;20500;-76
2022/06/11 00:17:42;;;;;;;0.22;0.20;;;13.60;99.90;;;;;;5018624;28;20439;-76
2022/06/11 00:20:09;;;;;;;0.10;0.10;;;13.50;99.90;;;;;;5053156;28;20056;-77
2022/06/11 00:22:34;;;;;;;0.22;0.22;;;13.50;99.90;;;;;;5053126;28;20525;-77
2022/06/11 00:25:00;;;;;;;0.30;0.30;;;13.50;99.90;;;;;;5034756;28;20021;-77
2022/06/11 00:27:26;;;;;;;0.30;0.30;;;13.50;99.90;;;;;;5035036;28;20060;-77
2022/06/11 00:29:52;;;;;;;0.30;0.30;;;13.40;99.90;;;;;;5035003;28;20032;-76
2022/06/11 00:32:18;;;;;;;1.50;0.90;;;13.50;99.90;;;;;;5052817;28;20487;-77
2022/06/11 00:34:44;;;;;;;1.60;0.77;;;13.40;99.90;;;;;;5034955;28;20111;-76
2022/06/11 00:37:12;;;;;;;0.52;0.52;;;13.40;99.90;;;;;;5034674;28;20106;-76
2022/06/11 00:39:39;;;;;;;0.98;0.90;;;13.40;99.90;;;;;;5052590;28;20021;-77
2022/06/11 00:42:14;;;;;;;0.10;0.10;;;13.40;99.90;;;;;;5034901;28;20017;-76
2022/06/11 00:44:40;;;;;;;1.17;1.08;;;13.40;99.90;;;;;;5034825;28;20028;-77
2022/06/11 00:47:09;;;;;;;0.57;0.57;;;13.30;99.90;;;;;;5034507;28;20030;-77
2022/06/11 00:49:41;;;;;;;0.20;0.20;;;13.30;99.90;;;;;;5034563;28;20094;-77
2022/06/11 00:52:24;;;;;;;0.35;0.35;;;13.30;99.90;;;;;;5052588;28;20078;-77
2022/06/11 00:55:12;;;;;;;0.25;0.22;;;13.40;99.90;;;;;;5034723;28;20048;-76
2022/06/11 00:57:51;;;;;;;0.40;0.30;;;13.40;99.90;;;;;;5052284;28;20025;-77
2022/06/11 01:00:27;;;;;;;0.75;0.40;;;13.30;99.90;;;;;;5052363;28;20304;-76
2022/06/11 01:02:53;;;;;;;0.10;0.10;;;13.30;99.90;;;;;;5034375;28;20052;-76
2022/06/11 01:05:31;;;;;;;0.47;0.47;;;13.30;99.90;;;;;;5034434;28;20032;-77
2022/06/11 01:08:03;;;;;;;2.83;0.82;;;13.20;99.90;;;;;;5034274;28;20048;-77
2022/06/11 01:11:01;;;;;;;0.32;0.32;;;13.10;99.90;;;;;;5034489;28;20025;-77
2022/06/11 01:13:51;;;;;;;0.40;0.40;;;13.10;99.90;;;;;;5046849;28;20033;-78
2022/06/11 01:16:20;;;;;;;0.30;0.30;;;13.20;99.90;;;;;;5034207;28;20028;-76
2022/06/11 01:19:10;;;;;;;0.10;0.10;;;13.20;99.90;;;;;;5034183;28;20426;-76
2022/06/11 01:21:49;;;;;;;0.70;0.70;;;13.20;99.90;;;;;;5052060;28;20388;-78
2022/06/11 01:24:28;;;;;;;0.20;0.20;;;13.20;99.90;;;;;;5034019;28;20443;-76
2022/06/11 01:27:21;;;;;;;0.50;0.47;;;13.10;99.90;;;;;;5034138;28;20025;-76
2022/06/11 01:29:54;;;;;;;0.13;0.13;;;13.00;99.90;;;;;;5034039;28;20031;-77
2022/06/11 01:32:44;;;;;;;0.20;0.20;;;13.00;99.90;;;;;;5034064;28;20118;-77
2022/06/11 01:35:13;;;;;;;0.20;0.20;;;13.10;99.90;;;;;;5051943;28;20100;-76
2022/06/11 01:38:02;;;;;;;0.10;0.10;;;13.10;99.90;;;;;;5056478;28;20063;-76
2022/06/11 01:40:42;;;;;;;0.30;0.30;;;13.20;99.90;;;;;;5024292;28;20634;-77
2022/06/11 01:43:18;;;;;;;3.30;0.57;;;13.30;99.90;;;;;;5040587;28;20028;-76
2022/06/11 01:45:45;;;;;;;0.40;0.40;;;13.20;99.90;;;;;;5058528;28;20017;-76
2022/06/11 01:48:17;;;;;;;0.63;0.38;;;13.20;99.90;;;;;;5058317;28;20025;-76
2022/06/11 01:50:50;;;;;;;4.20;0.80;;;13.10;99.90;;;;;;5040572;28;20392;-76
2022/06/11 01:53:34;;;;;;;0.32;0.30;;;13.00;99.90;;;;;;5058347;28;20496;-77
2022/06/11 01:56:26;;;;;;;0.10;0.10;;;13.10;99.90;;;;;;5024013;28;20025;-77
2022/06/11 01:59:27;;;;;;;0.10;0.10;;;13.10;99.90;;;;;;5040454;28;20423;-77
2022/06/11 02:02:07;;;;;;;0.65;0.10;;;13.20;99.90;;;;;;5026886;28;20037;-77
2022/06/11 02:04:42;;;;;;;0.10;0.10;;;13.10;99.90;;;;;;5040431;28;20029;-77
2022/06/11 02:07:51;;;;;;;0.10;0.10;;;13.20;99.90;;;;;;5058320;28;20025;-77
2022/06/11 02:10:23;;;;;;;0.10;0.10;;;13.40;99.90;;;;;;5011682;28;20099;-77
2022/06/11 02:13:01;;;;;;;0.30;0.30;;;13.50;99.90;;;;;;5040460;28;20021;-77
2022/06/11 02:15:35;;;;;;;0.20;0.20;;;13.40;99.90;;;;;;5058448;28;20037;-77
2022/06/11 02:18:13;;;;;;;0.47;0.40;;;13.30;99.90;;;;;;5040321;28;20029;-77
2022/06/11 02:20:45;;;;;;;0.98;0.50;;;13.20;99.90;;;;;;5058221;28;20036;-77
2022/06/11 02:23:17;;;;;;;;;;;13.20;99.90;;;;;;5024267;28;20029;-77
2022/06/11 02:25:50;;;;;;;0.98;0.77;;;13.20;99.90;;;;;;5058252;28;19908;-77
2022/06/11 02:28:22;;;;;;;0.00;0.00;;;13.30;99.90;;;;;;5058085;28;20029;-77
2022/06/11 02:30:50;;;;;;;0.10;0.10;;;13.30;99.90;;;;;;5058050;28;20021;-77
2022/06/11 02:33:18;;;;;;;0.10;0.10;;;13.30;99.90;;;;;;5058038;28;20039;-77
2022/06/11 02:36:01;;;;;;;0.40;0.20;;;13.30;99.90;;;;;;5040071;28;20071;-77
2022/06/11 02:38:28;;;;;;;1.92;1.05;;;13.20;99.90;;;;;;5039923;28;20033;-77
2022/06/11 02:41:01;;;;;;;0.47;0.40;;;13.00;99.90;;;;;;5039981;28;20099;-77
2022/06/11 02:43:27;;;;;;;6.30;1.25;;;12.90;99.90;;;;;;5057920;28;20102;-77
2022/06/11 02:45:53;;;;;;;0.52;0.52;;;12.80;99.90;;;;;;5057815;28;20029;-76
2022/06/11 02:48:20;;;;;;;0.30;0.30;;;12.70;99.90;;;;;;5037854;28;20468;-76
2022/06/11 02:50:47;;;;;;;0.30;0.30;;;12.70;99.90;;;;;;5054855;28;20431;-76
2022/06/11 02:53:14;;;;;;;0.40;0.40;;;12.60;99.90;;;;;;5020731;28;20025;-76
2022/06/11 02:55:41;;;;;;;0.40;0.40;;;12.60;99.90;;;;;;5036987;28;20029;-77
2022/06/11 02:58:10;;;;;;;0.10;0.10;;;12.60;99.90;;;;;;5036541;28;20024;-77
2022/06/11 03:00:43;;;;;;;0.47;0.47;;;12.60;99.90;;;;;;5036716;28;20166;-77
2022/06/11 03:03:09;;;;;;;0.38;0.38;;;12.70;99.90;;;;;;5036640;28;20052;-76
2022/06/11 03:05:37;;;;;;;1.08;0.30;;;12.70;99.90;;;;;;5054497;28;20032;-77
2022/06/11 03:08:04;;;;;;;2.55;0.50;;;12.70;99.90;;;;;;5054312;28;20059;-77
2022/06/11 03:10:30;;;;;;;0.22;0.22;;;12.80;99.90;;;;;;5054390;28;20045;-76
2022/06/11 03:12:56;;;;;;;0.75;0.75;;;12.70;99.90;;;;;;5054295;28;20051;-76
2022/06/11 03:15:24;;;;;;;0.98;0.95;;;12.70;99.90;;;;;;5036257;28;20508;-76
2022/06/11 03:17:52;;;;;;;2.08;1.48;;;12.70;99.90;;;;;;5036272;28;20037;-77
2022/06/11 03:20:19;;;;;;;0.20;0.20;;;12.60;99.90;;;;;;5036457;28;20061;-77
2022/06/11 03:22:45;;;;;;;0.20;0.20;;;12.60;99.90;;;;;;5036278;28;20033;-77
2022/06/11 03:25:12;;;;;;;0.57;0.57;;;12.50;99.90;;;;;;5036323;28;20116;-77
2022/06/11 03:27:39;;;;;;;3.35;0.88;;;12.50;99.90;;;;;;5054100;28;20024;-77
2022/06/11 03:30:08;;;;;;;0.50;0.50;;;12.50;99.90;;;;;;5036089;28;20025;-76
2022/06/11 03:32:34;;;;;;;0.85;0.70;;;12.40;99.90;;;;;;5019605;28;20028;-77
2022/06/11 03:34:59;;;;;;;0.38;0.38;;;12.40;99.90;;;;;;5036165;28;20025;-76
2022/06/11 03:37:25;;;;;;;0.63;0.63;;;12.40;99.90;;;;;;5053787;28;20120;-76
2022/06/11 03:39:51;;;;;;;0.50;0.50;;;12.40;99.90;;;;;;5035962;28;20033;-77
2022/06/11 03:42:17;;;;;;;0.50;0.50;;;12.40;99.90;;;;;;5035836;28;20603;-77
2022/06/11 03:44:43;;;;;;;0.10;0.10;;;12.40;99.90;;;;;;5019321;28;20480;-76
2022/06/11 03:47:09;;;;;;;0.10;0.10;;;12.40;99.90;;;;;;5019204;28;20024;-76
2022/06/11 03:49:36;;;;;;;0.28;0.28;;;12.40;99.90;;;;;;5035781;28;20025;-76
2022/06/11 03:52:03;;;;;;;0.20;0.20;;;12.40;99.90;;;;;;5019285;28;20025;-75
2022/06/11 03:54:29;;;;;;;0.17;0.17;;;12.40;99.90;;;;;;5053564;28;20369;-76
2022/06/11 03:56:56;;;;;;;1.60;0.85;;;12.30;99.90;;;;;;5053433;28;20033;-76
2022/06/11 03:59:23;;;;;;;0.40;0.40;;;12.20;99.90;;;;;;5035995;28;20572;-76
2022/06/11 04:01:49;;;;;;;0.10;0.10;;;12.20;99.90;;;;;;5018951;28;20112;-77
2022/06/11 04:04:19;;;;;;;0.73;0.73;;;12.30;99.90;;;;;;5035648;28;20053;-76
2022/06/11 04:06:49;;;;;;;1.20;0.60;;;12.30;99.90;;;;;;5035493;28;20025;-77
2022/06/11 04:09:28;;;;;;;0.10;0.10;;;12.30;99.90;;;;;;5053327;28;20654;-77
2022/06/11 04:11:54;;;;;;;0.10;0.10;;;12.30;99.90;;;;;;5035270;28;20484;-77
2022/06/11 04:14:20;;;;;;;0.52;0.52;;;12.40;99.90;;;;;;5053232;28;20057;-77
2022/06/11 04:16:50;;;;;;;1.38;0.65;;;12.30;99.90;;;;;;5053178;28;20021;-77
2022/06/11 04:19:20;;;;;;;0.30;0.30;;;12.40;99.90;;;;;;5035328;28;20033;-76
2022/06/11 04:21:48;;;;;;;0.20;0.20;;;12.40;99.90;;;;;;5053101;28;20500;-76
2022/06/11 04:24:15;;;;;;;0.22;0.22;;;12.40;99.90;;;;;;5035166;28;20025;-77
2022/06/11 04:26:46;;;;;;;0.45;0.40;;;12.40;99.90;;;;;;5018585;28;20033;-76
2022/06/11 04:29:16;;;;;;;7.28;1.23;;;12.50;99.90;;;;;;5052801;28;20095;-77
2022/06/11 04:31:43;;;;;;;1.85;0.57;;;12.50;99.90;;;;;;5035138;28;20032;-77
2022/06/11 04:34:11;;;;;;;0.20;0.20;;;12.60;99.90;;;;;;5018579;28;20405;-76
2022/06/11 04:36:37;;;;;;;0.50;0.50;;;12.70;99.90;;;;;;5052622;28;20497;-76
2022/06/11 04:39:06;;;;;;;0.70;0.65;;;12.70;99.90;;;;;;5034827;28;20029;-76
2022/06/11 04:41:32;;;;;;;0.10;0.10;;;12.70;99.90;;;;;;5034767;28;20028;-76
2022/06/11 04:43:57;;;;;;;0.30;0.30;;;12.80;99.90;;;;;;5034703;28;20652;-77
2022/06/11 04:46:23;;;;;;;2.90;0.80;;;12.90;99.90;;;;;;5052538;28;20353;-77
2022/06/11 04:48:49;;;;;;;0.30;0.30;;;12.90;99.90;;;;;;5034722;28;20361;-77
2022/06/11 04:51:16;;;;;;;0.40;0.40;;;13.00;99.90;;;;;;5034516;28;20021;-77
2022/06/11 04:53:44;;;;;;;0.95;0.50;;;13.20;99.90;;;;;;5017926;28;20043;-77
2022/06/11 04:56:14;;;;;;;0.55;0.50;;;13.20;99.90;;;;;;5052316;28;20028;-76
2022/06/11 04:58:41;;;;;;;0.75;0.75;;;13.20;99.90;;;;;;5034174;28;20388;-77
2022/06/11 05:01:07;;;;;;;0.57;0.57;;;13.30;99.90;;;;;;5034472;28;20111;-76
2022/06/11 05:03:33;;;;;;;0.10;0.10;;;13.40;99.90;;;;;;5017814;28;20380;-77
2022/06/11 05:06:00;;;;;;;0.35;0.30;;;13.40;99.90;;;;;;5034263;28;20017;-77
2022/06/11 05:08:26;;;;;;;1.08;0.45;;;13.60;99.90;;;;;;5034527;28;20478;-77
2022/06/11 05:10:52;;;;;;;0.55;0.20;;;13.60;99.90;;;;;;5068662;28;20074;-77
2022/06/11 05:13:18;;;;;;;0.10;0.10;;;13.90;99.90;;;;;;5053973;28;20024;-76
2022/06/11 05:15:49;;;;;;;0.80;0.63;;;14.00;99.90;;;;;;5037628;28;20032;-77
2022/06/11 05:18:15;;;;;;;0.10;0.10;;;14.00;99.90;;;;;;5053724;28;20423;-77
2022/06/11 05:20:42;;;;;;;0.10;0.10;;;14.20;99.90;;;;;;5072179;28;20028;-77
2022/06/11 05:23:08;;;;;;;0.10;0.10;;;14.40;99.90;;;;;;5071777;28;20021;-77
2022/06/11 05:25:35;;;;;;;0.20;0.20;;;14.60;99.90;;;;;;5054157;28;20533;-78
2022/06/11 05:28:02;;;;;;;0.00;0.00;;;14.80;99.90;;;;;;5052878;28;20020;-77
2022/06/11 05:30:31;;;;;;;0.10;0.10;;;15.00;99.90;;;;;;5051800;28;20048;-77
2022/06/11 05:32:58;;;;;;;0.10;0.10;;;15.10;99.90;;;;;;5050697;28;20028;-76
2022/06/11 05:35:29;;;;;;;0.10;0.10;;;15.30;99.90;;;;;;5032618;28;20037;-77
2022/06/11 05:37:57;;;;;;;0.10;0.10;;;15.40;99.90;;;;;;5119017;22;20041;-71
2022/06/11 05:40:26;;;;;;;0.10;0.10;;;15.60;99.90;;;;;;5051242;28;20036;-71
2022/06/11 05:42:52;;;;;;;0.10;0.10;;;15.70;99.90;;;;;;5051360;28;20040;-71
2022/06/11 05:45:21;;;;;;;0.10;0.10;;;15.80;99.90;;;;;;5051487;28;20021;-72
2022/06/11 05:47:50;;;;;;;0.10;0.10;;;15.90;99.90;;;;;;5032982;28;20457;-72
2022/06/11 05:50:21;;;;;;;0.38;0.38;;;16.00;99.90;;;;;;5033617;28;20107;-71
2022/06/11 05:52:47;;;;;;;0.08;0.08;;;16.00;99.90;;;;;;5051801;28;20391;-71
2022/06/11 05:55:19;;;;;;;0.10;0.10;;;16.00;99.90;;;;;;5051508;28;20033;-71
2022/06/11 05:57:48;;;;;;;0.05;0.05;;;16.10;99.90;;;;;;5051479;28;20057;-71
2022/06/11 06:00:17;;;;;;;0.20;0.20;;;16.20;99.90;;;;;;5033268;28;20025;-71
2022/06/11 06:02:44;;;;;;;0.20;0.20;;;16.20;99.90;;;;;;5051518;28;20498;-71
2022/06/11 06:05:15;;;;;;;0.10;0.10;;;16.30;99.90;;;;;;5033547;28;20476;-71
2022/06/11 06:07:41;;;;;;;0.10;0.10;;;16.40;99.90;;;;;;5051331;28;20025;-71
2022/06/11 06:10:07;;;;;;;0.13;0.13;;;16.60;99.90;;;;;;5051290;28;20504;-72
2022/06/11 06:12:34;;;;;;;0.15;0.15;;;16.80;99.90;;;;;;5051450;28;20021;-72
2022/06/11 06:15:03;;;;;;;0.00;0.00;;;17.00;99.90;;;;;;5017099;28;20056;-72
2022/06/11 06:17:29;;;;;;;0.10;0.10;;;17.10;99.90;;;;;;5051201;28;20021;-71
2022/06/11 06:19:54;;;;;;;0.08;0.08;;;17.20;99.90;;;;;;5034291;28;20022;-75
2022/06/11 06:22:20;;;;;;;0.10;0.10;;;17.30;99.90;;;;;;5033861;28;20472;-74
2022/06/11 06:24:47;;;;;;;0.05;0.05;;;17.30;99.90;;;;;;5054671;28;20380;-75
2022/06/11 06:27:13;;;;;;;0.00;0.00;;;17.40;99.90;;;;;;5055654;28;20092;-76
2022/06/11 06:29:39;;;;;;;0.88;0.82;;;17.40;99.90;;;;;;5055767;28;20028;-72
2022/06/11 06:32:05;;;;;;;0.10;0.10;;;17.50;99.90;;;;;;5037043;28;20017;-73
2022/06/11 06:34:30;;;;;;;0.00;0.00;;;17.70;99.90;;;;;;5037088;28;20484;-72
2022/06/11 06:36:56;;;;;;;0.10;0.10;;;17.90;99.90;;;;;;5037082;28;20075;-74
2022/06/11 06:39:22;;;;;;;0.20;0.20;;;18.20;99.90;;;;;;5054947;28;20043;-72
2022/06/11 06:41:49;;;;;;;0.20;0.20;;;18.40;99.90;;;;;;5037107;28;20387;-72
2022/06/11 06:44:16;;;;;;;0.10;0.10;;;18.50;99.90;;;;;;5036849;28;20037;-71
2022/06/11 06:46:43;;;;;;;0.03;0.03;;;18.60;99.90;;;;;;5054467;28;20021;-72
2022/06/11 06:49:09;;;;;;;0.00;0.00;;;18.70;99.90;;;;;;5054675;28;20075;-71
2022/06/11 06:51:35;;;;;;;0.00;0.00;;;18.90;99.90;;;;;;5054245;28;20388;-71
2022/06/11 06:54:03;;;;;;;0.10;0.10;;;19.10;99.90;;;;;;5054538;28;20037;-72
2022/06/11 06:56:33;;;;;;;0.10;0.10;;;19.20;99.90;;;;;;5054461;28;20480;-70
2022/06/11 06:59:01;;;;;;;0.00;0.00;;;19.20;99.90;;;;;;5054747;28;20365;-72
2022/06/11 07:01:27;;;;;;;0.10;0.10;;;19.20;99.90;;;;;;5054467;28;20020;-72
2022/06/11 07:03:54;;;;;;;0.00;0.00;;;19.40;99.90;;;;;;5036581;28;20052;-72
2022/06/11 07:06:20;;;;;;;0.00;0.00;;;19.60;99.90;;;;;;5054198;28;20021;-72
2022/06/11 07:08:47;;;;;;;0.10;0.10;;;19.80;99.10;;;;;;5036289;28;20431;-72
2022/06/11 07:11:13;;;;;;;0.00;0.00;;;19.90;97.30;;;;;;5054212;28;20033;-71
2022/06/11 07:13:39;;;;;;;0.00;0.00;;;19.90;97.40;;;;;;5054322;28;20500;-72
2022/06/11 07:16:06;;;;;;;0.57;0.57;;;19.80;96.30;;;;;;5054219;28;20477;-72
2022/06/11 07:18:42;;;;;;;0.08;0.08;;;19.90;96.80;;;;;;5054205;28;20025;-72
2022/06/11 07:21:13;;;;;;;0.22;0.22;;;20.10;95.90;;;;;;5054039;28;20106;-72
2022/06/11 07:23:47;;;;;;;0.10;0.10;;;20.30;95.90;;;;;;5036223;28;20485;-72
2022/06/11 07:26:18;;;;;;;0.10;0.10;;;20.40;94.60;;;;;;5054028;28;20123;-72
2022/06/11 07:28:54;;;;;;;0.00;0.00;;;20.30;93.60;;;;;;5053959;28;20480;-72
2022/06/11 07:31:21;;;;;;;0.10;0.10;;;20.30;94.20;;;;;;5053951;28;20480;-72
2022/06/11 07:33:49;;;;;;;0.00;0.00;;;20.50;93.80;;;;;;5036052;28;20167;-72
2022/06/11 07:36:16;;;;;;;0.10;0.10;;;20.50;92.80;;;;;;5018992;28;20083;-72
2022/06/11 07:38:42;;;;;;;0.50;0.40;;;20.70;92.60;;;;;;5053359;28;20557;-73
2022/06/11 07:41:08;;;;;;;0.10;0.10;;;20.90;91.50;;;;;;5053738;28;20021;-72
2022/06/11 07:43:34;;;;;;;3.85;0.75;;;21.10;91.20;;;;;;5035633;28;20025;-72
2022/06/11 07:46:00;;;;;;;0.00;0.00;;;20.80;89.60;;;;;;5053356;28;20044;-72
2022/06/11 07:48:27;;;;;;;0.38;0.38;;;20.90;90.70;;;;;;5053249;28;20029;-71
2022/06/11 07:50:53;;;;;;;1.08;1.05;;;21.10;89.60;;;;;;5053601;28;20024;-72
2022/06/11 07:53:21;;;;;;;0.10;0.10;;;21.30;87.50;;;;;;5053559;28;20028;-72
2022/06/11 07:55:50;;;;;;;0.20;0.20;;;21.20;88.10;;;;;;5035517;28;20120;-73
2022/06/11 07:58:18;;;;;;;0.20;0.20;;;21.20;89.90;;;;;;5035190;28;20480;-72
2022/06/11 08:00:47;;;;;;;0.40;0.40;;;21.50;89.10;;;;;;5019109;28;20650;-73
2022/06/11 08:03:13;;;;;;;0.10;0.10;;;21.50;87.70;;;;;;5053107;28;20056;-73
2022/06/11 08:05:41;;;;;;;0.00;0.00;;;21.60;85.90;;;;;;5035385;28;20050;-72
2022/06/11 08:08:08;;;;;;;0.05;0.05;;;22.00;85.20;;;;;;5052945;28;20472;-72
2022/06/11 08:10:37;;;;;;;0.03;0.03;;;22.10;83.10;;;;;;5052979;28;20021;-73
2022/06/11 08:13:03;;;;;;;0.00;0.00;;;22.20;81.40;;;;;;5035300;28;20037;-72
2022/06/11 08:15:30;;;;;;;0.00;0.00;;;22.20;81.30;;;;;;5035243;28;20388;-72
2022/06/11 08:17:56;;;;;;;0.00;0.00;;;22.40;81.90;;;;;;5052758;28;20032;-73
2022/06/11 08:20:25;;;;;;;0.55;0.55;;;22.60;80.60;;;;;;5052917;28;20051;-72
2022/06/11 08:22:52;;;;;;;0.20;0.20;;;22.50;80.00;;;;;;5052658;28;20032;-71
2022/06/11 08:25:19;;;;;;;0.10;0.10;;;22.50;80.80;;;;;;5034935;28;20033;-72
2022/06/11 08:27:45;;;;;;;0.03;0.03;;;22.40;79.30;;;;;;5052549;28;20021;-71
2022/06/11 08:30:16;;;;;;;0.40;0.10;;;22.50;79.30;;;;;;5034726;28;20079;-72
2022/06/11 08:32:42;;;;;;;2.53;2.00;;;22.90;79.30;;;;;;5052797;28;20124;-72
2022/06/11 08:35:10;;;;;;;0.00;0.00;;;23.10;77.90;;;;;;5034784;28;20120;-73
2022/06/11 08:37:37;;;;;;;0.08;0.08;;;22.90;77.40;;;;;;5052266;28;20033;-72
2022/06/11 08:40:08;;;;;;;0.52;0.35;;;23.00;76.50;;;;;;5052424;28;20480;-72
2022/06/11 08:42:41;;;;;;;0.00;0.00;;;23.40;77.20;;;;;;5052438;28;20104;-72
2022/06/11 08:45:20;;;;;;;0.20;0.20;;;23.40;75.80;;;;;;5052379;28;20105;-72
2022/06/11 08:47:51;;;;;;;0.00;0.00;;;23.60;75.70;;;;;;5051208;28;20427;-73
2022/06/11 08:50:28;;;;;;;0.00;0.00;;;24.10;74.20;;;;;;5052091;28;20071;-72
2022/06/11 08:52:55;;;;;;;0.10;0.10;;;24.20;70.60;;;;;;5034377;28;20418;-73
2022/06/11 08:55:22;;;;;;;0.00;0.00;;;24.30;72.50;;;;;;5052281;28;20476;-73
2022/06/11 08:58:16;;;;;;;0.22;0.22;;;24.40;69.80;;;;;;5033882;28;20035;-71
2022/06/11 09:01:17;;;;;;;0.20;0.20;;;24.40;68.40;;;;;;5052189;28;20040;-71
2022/06/11 09:04:10;;;;;;;0.00;0.00;;;24.30;69.40;;;;;;5020692;28;20068;-73
2022/06/11 09:07:11;;;;;;;0.00;0.00;;;24.50;69.00;;;;;;5034109;28;20025;-72
2022/06/11 09:09:55;;;;;;;0.00;0.00;;;24.90;68.30;;;;;;4967710;28;20052;-73
2022/06/11 09:12:39;;;;;;;0.00;0.00;;;25.10;67.90;;;;;;5034158;28;20044;-73
2022/06/11 09:15:23;;;;;;;0.00;0.00;;;25.40;67.10;;;;;;5052110;28;20059;-73
2022/06/11 09:18:04;;;;;;;0.00;0.00;;;25.50;64.70;;;;;;5033775;28;20503;-72
2022/06/11 09:20:38;;;;;;;0.07;0.07;;;25.40;65.40;;;;;;5052029;28;20029;-73
2022/06/11 09:23:19;;;;;;;0.00;0.00;;;25.60;66.20;;;;;;5051812;28;20064;-71
2022/06/11 09:25:53;;;;;;;0.10;0.10;;;25.00;63.60;;;;;;5052235;28;20028;-73
2022/06/11 09:28:43;;;;;;;0.20;0.20;;;25.20;63.60;;;;;;5051649;28;20082;-73
2022/06/11 09:31:16;;;;;;;0.00;0.00;;;25.70;63.30;;;;;;5051977;28;20491;-73
2022/06/11 09:33:48;;;;;;;1.10;1.10;;;25.90;62.70;;;;;;5034055;28;20103;-73
2022/06/11 09:36:30;;;;;;;0.05;0.05;;;25.90;61.80;;;;;;5051832;28;20446;-73
2022/06/11 09:39:12;;;;;;;0.00;0.00;;;26.00;61.30;;;;;;5051719;28;20033;-73
2022/06/11 09:42:00;;;;;;;0.00;0.00;;;26.10;59.40;;;;;;5033932;28;20044;-73
2022/06/11 09:44:33;;;;;;;0.08;0.08;;;26.20;59.90;;;;;;5051692;28;20052;-72
2022/06/11 09:47:13;;;;;;;0.25;0.25;;;26.30;60.40;;;;;;5051398;28;20032;-73
2022/06/11 09:49:57;;;;;;;0.22;0.22;;;26.50;60.30;;;;;;5033861;28;20048;-72
2022/06/11 09:52:32;;;;;;;0.00;0.00;;;26.60;59.70;;;;;;5033885;28;20025;-73
2022/06/11 09:55:21;;;;;;;0.00;0.00;;;26.70;59.50;;;;;;5051625;28;20036;-73
2022/06/11 09:58:24;;;;;;;0.05;0.05;;;26.70;59.90;;;;;;5018285;28;20021;-73
2022/06/11 10:01:00;;;;;;;0.10;0.10;;;26.60;57.40;;;;;;5037646;28;20025;-72
2022/06/11 10:03:45;;;;;;;0.00;0.00;;;26.50;58.40;;;;;;5037804;28;20025;-73
2022/06/11 10:06:25;;;;;;;0.00;0.00;;;26.90;57.50;;;;;;5021087;28;20116;-73
2022/06/11 10:09:09;;;;;;;0.00;0.00;;;27.20;57.20;;;;;;5037768;28;20032;-72
2022/06/11 10:11:49;;;;;;;0.03;0.03;;;27.30;56.30;;;;;;5037602;28;20029;-73
2022/06/11 10:14:42;;;;;;;0.20;0.10;;;27.10;55.70;;;;;;5055349;28;20025;-72
2022/06/11 10:17:15;;;;;;;0.00;0.00;;;27.30;54.40;;;;;;5037227;28;20025;-72
2022/06/11 10:19:54;;;;;;;0.40;0.30;;;27.30;54.60;;;;;;5055209;28;20067;-71
2022/06/11 10:22:27;;;;;;;0.52;0.52;;;27.80;53.50;;;;;;5055266;28;20017;-72
2022/06/11 10:25:11;;;;;;;1.05;0.20;;;27.70;54.00;;;;;;5055203;28;20090;-73
2022/06/11 10:27:42;;;;;;;0.00;0.00;;;27.80;52.40;;;;;;5055087;28;20021;-73
2022/06/11 10:30:33;;;;;;;0.20;0.20;;;27.80;51.10;;;;;;5055154;28;20108;-73
2022/06/11 10:33:03;;;;;;;0.77;0.10;;;27.30;50.30;;;;;;5055262;28;20037;-73
2022/06/11 10:35:43;;;;;;;0.00;0.00;;;27.50;52.30;;;;;;5037346;28;20636;-73
2022/06/11 10:38:32;;;;;;;0.38;0.38;;;27.40;51.90;;;;;;5054796;28;20037;-73
2022/06/11 10:40:59;;;;;;;0.25;0.25;;;27.30;50.80;;;;;;5024135;28;20045;-72
2022/06/11 10:43:29;;;;;;;0.00;0.00;;;27.30;53.50;;;;;;5037064;28;20074;-73
2022/06/11 10:45:55;;;;;;;0.10;0.05;;;27.80;51.10;;;;;;5054734;28;20021;-72
2022/06/11 10:48:23;;;;;;;0.85;0.47;;;28.00;50.00;;;;;;5054579;28;20028;-73
2022/06/11 10:50:50;;;;;;;0.10;0.10;;;28.10;52.20;;;;;;5054687;28;20100;-73
2022/06/11 10:53:28;;;;;;;0.00;0.00;;;28.50;50.30;;;;;;5036728;28;20025;-72
2022/06/11 10:55:56;;;;;;;0.05;0.05;;;28.70;49.30;;;;;;5054618;28;20049;-73
2022/06/11 10:58:46;;;;;;;0.00;0.00;;;28.90;48.90;;;;;;5054310;28;20056;-73
2022/06/11 11:01:24;;;;;;;0.00;0.00;;;28.40;48.40;;;;;;5036772;28;20481;-72
2022/06/11 11:03:57;;;;;;;0.00;0.00;;;28.30;49.20;;;;;;5054701;28;20035;-73
2022/06/11 11:06:34;;;;;;;0.00;0.00;;;28.40;48.80;;;;;;5036301;28;20115;-73
2022/06/11 11:09:13;;;;;;;0.00;0.00;;;28.50;50.30;;;;;;5053616;28;20021;-73
2022/06/11 11:11:45;;;;;;;0.25;0.10;;;28.40;48.60;;;;;;5054331;28;20021;-72
2022/06/11 11:14:27;;;;;;;1.13;0.43;;;28.30;49.30;;;;;;5054360;28;20499;-73
2022/06/11 11:17:00;;;;;;;0.10;0.10;;;28.00;49.40;;;;;;5054148;28;20482;-72
2022/06/11 11:19:30;;;;;;;0.25;0.13;;;27.70;49.90;;;;;;5054228;28;20075;-73
2022/06/11 11:22:11;;;;;;;0.00;0.00;;;27.80;48.90;;;;;;5054403;28;20043;-73
2022/06/11 11:24:59;;;;;;;0.25;0.25;;;27.90;48.10;;;;;;5054038;28;20112;-73
2022/06/11 11:27:44;;;;;;;0.10;0.10;;;27.40;49.80;;;;;;5035395;28;20743;-73
2022/06/11 11:30:15;;;;;;;0.30;0.30;;;27.30;49.10;;;;;;5054069;28;20036;-72
2022/06/11 11:32:43;;;;;;;0.00;0.00;;;26.70;49.50;;;;;;5054044;28;20025;-72
2022/06/11 11:35:21;;;;;;;0.00;0.00;;;26.20;51.20;;;;;;5054065;28;20453;-71
2022/06/11 11:38:16;;;;;;;0.00;0.00;;;25.90;51.20;;;;;;5075530;23;20056;-94
2022/06/11 11:43:57;;;;;;;0.17;0.17;;;26.10;51.80;;;;;;5071754;22;20033;-72
2022/06/11 11:46:26;;;;;;;0.00;0.00;;;26.50;52.10;;;;;;5035483;28;20115;-73
2022/06/11 11:48:58;;;;;;;0.00;0.00;;;27.10;51.00;;;;;;5035605;28;20131;-73
2022/06/11 11:51:31;;;;;;;0.10;0.10;;;27.40;50.40;;;;;;5054001;28;20017;-72
2022/06/11 11:54:05;;;;;;;0.20;0.20;;;27.60;50.30;;;;;;5035629;28;20036;-72
2022/06/11 11:56:41;;;;;;;0.03;0.03;;;27.50;51.80;;;;;;5053337;28;20464;-73
2022/06/11 11:59:13;;;;;;;0.30;0.30;;;27.50;51.30;;;;;;5053334;28;20398;-73
2022/06/11 12:01:39;;;;;;;0.35;0.35;;;27.50;52.50;;;;;;5018943;28;20021;-72
2022/06/11 12:04:16;;;;;;;0.00;0.00;;;27.30;52.00;;;;;;5018778;28;20029;-72
2022/06/11 12:06:52;;;;;;;0.00;0.00;;;27.00;51.60;;;;;;5053263;28;20047;-73
2022/06/11 12:09:36;;;;;;;0.10;0.10;;;27.20;52.30;;;;;;5053331;28;20024;-72
2022/06/11 12:12:11;;;;;;;0.00;0.00;;;27.20;51.30;;;;;;5053192;28;20028;-72
2022/06/11 12:14:45;;;;;;;0.05;0.05;;;26.90;50.70;;;;;;5053064;28;20039;-73
2022/06/11 12:17:39;;;;;;;0.55;0.20;;;26.70;50.90;;;;;;5052943;28;20063;-72
2022/06/11 12:20:37;;;;;;;0.00;0.00;;;26.90;51.20;;;;;;5035209;28;20563;-72
2022/06/11 12:23:29;;;;;;;0.28;0.22;;;27.00;50.60;;;;;;5048027;28;20090;-72
2022/06/11 12:26:01;;;;;;;;;;;26.90;49.20;;;;;;5053270;28;20043;-72
2022/06/11 12:28:42;;;;;;;0.00;0.00;;;26.90;48.50;;;;;;5053036;28;19999;-72
2022/06/11 12:31:11;;;;;;;0.00;0.00;;;26.90;50.00;;;;;;5052852;28;20020;-72
2022/06/11 12:33:42;;;;;;;0.10;0.10;;;27.00;50.30;;;;;;5034782;28;20488;-72
2022/06/11 12:36:30;;;;;;;0.00;0.00;;;27.00;50.10;;;;;;5052728;28;20056;-73
2022/06/11 12:39:22;;;;;;;0.00;0.00;;;27.10;50.30;;;;;;5052626;28;20381;-73
2022/06/11 12:41:57;;;;;;;;;;;27.20;51.40;;;;;;5015415;28;20167;-73
2022/06/11 12:44:35;;;;;;;0.65;0.50;;;27.10;51.00;;;;;;5052454;28;19912;-73
2022/06/11 12:47:30;;;;;;;0.00;0.00;;;27.10;49.60;;;;;;5034516;28;20066;-73
2022/06/11 12:50:26;;;;;;;0.10;0.10;;;26.70;50.90;;;;;;5034543;28;20025;-73
2022/06/11 12:53:01;;;;;;;0.00;0.00;;;26.40;51.60;;;;;;5052486;28;20021;-73
2022/06/11 12:55:45;;;;;;;0.10;0.10;;;26.70;52.70;;;;;;5052319;28;20066;-73
2022/06/11 12:58:16;;;;;;;0.00;0.00;;;26.90;51.20;;;;;;5052239;28;20021;-73
2022/06/11 13:00:51;;;;;;;0.00;0.00;;;27.10;49.00;;;;;;5052350;28;20028;-73
2022/06/11 13:03:53;;;;;;;0.35;0.35;;;27.10;48.60;;;;;;5034372;28;20627;-73
2022/06/11 13:06:39;;;;;;;0.00;0.00;;;26.60;49.30;;;;;;5052219;28;20075;-73
2022/06/11 13:09:14;;;;;;;0.38;0.38;;;26.50;50.30;;;;;;5034285;28;20135;-73
2022/06/11 13:11:43;;;;;;;0.50;0.50;;;26.40;50.80;;;;;;5034307;28;20344;-72
2022/06/11 13:14:14;;;;;;;0.00;0.00;;;26.30;50.30;;;;;;5034318;28;20118;-72
2022/06/11 13:16:40;;;;;;;;;;;26.30;50.40;;;;;;5052531;28;20033;-73
2022/06/11 13:19:21;;;;;;;0.00;0.00;;;26.20;50.80;;;;;;5034243;28;19995;-73